createdAt,value
2023-03-04T00:02:30.059Z,99355.19
2023-03-04T00:04:58.282Z,99352.73
2023-03-04T00:07:26.506Z,99349.20
2023-03-04T00:09:57.852Z,99349.51
2023-03-04T00:12:26.164Z,99353.03
2023-03-04T00:14:54.292Z,99355.52
2023-03-04T00:17:26.703Z,99351.27
2023-03-04T00:19:55.309Z,99347.41
2023-03-04T00:22:24.077Z,99347.80
2023-03-04T00:24:55.013Z,99342.17
2023-03-04T00:27:23.505Z,99340.44
2023-03-04T00:29:51.674Z,99335.69
2023-03-04T00:32:19.946Z,99334.98
2023-03-04T00:41:26.822Z,99312.92
2023-03-04T00:43:55.142Z,99306.41
2023-03-04T00:46:23.347Z,99304.30
2023-03-04T00:48:55.403Z,99300.09
2023-03-04T00:51:23.590Z,99300.96
2023-03-04T00:54:00.372Z,99299.89
2023-03-04T00:56:29.362Z,99294.63
2023-03-04T00:58:57.613Z,99294.83
2023-03-04T01:01:27.649Z,99293.96
2023-03-04T01:03:57.082Z,99291.17
2023-03-04T01:06:26.759Z,99290.12
2023-03-04T01:08:54.925Z,99286.10
2023-03-04T01:11:23.294Z,99284.34
2023-03-04T01:13:51.597Z,99281.70
2023-03-04T01:16:19.945Z,99278.52
2023-03-04T01:18:51.100Z,99280.45
2023-03-04T01:21:19.474Z,99282.33
2023-03-04T01:23:48.958Z,99275.98
2023-03-04T01:26:17.286Z,99275.64
2023-03-04T01:28:45.334Z,99275.66
2023-03-04T01:31:13.620Z,99272.15
2023-03-04T01:33:42.193Z,99269.17
2023-03-04T01:36:11.708Z,99267.42
2023-03-04T01:38:41.070Z,99266.75
2023-03-04T01:41:12.288Z,99269.05
2023-03-04T01:43:41.660Z,99261.85
2023-03-04T01:46:10.495Z,99260.27
2023-03-04T01:48:39.493Z,99250.23
2023-03-04T01:51:12.636Z,99248.63
2023-03-04T01:53:41.396Z,99241.96
2023-03-04T01:56:34.425Z,99234.42
2023-03-04T01:59:08.372Z,99235.72
2023-03-04T02:01:38.023Z,99237.01
2023-03-04T02:04:07.034Z,99234.42
2023-03-04T02:06:37.017Z,99237.40
2023-03-04T02:09:05.590Z,99232.50
2023-03-04T02:11:34.595Z,99234.64
2023-03-04T02:14:03.070Z,99233.43
2023-03-04T02:16:32.036Z,99232.55
2023-03-04T02:19:00.193Z,99229.42
2023-03-04T02:21:32.889Z,99231.71
2023-03-04T02:24:17.827Z,99228.54
2023-03-04T02:26:47.147Z,99224.66
2023-03-04T02:29:19.018Z,99233.26
2023-03-04T02:31:48.609Z,99232.55
2023-03-04T02:34:24.473Z,99220.60
2023-03-04T02:36:57.520Z,99214.48
2023-03-04T02:39:35.108Z,99209.20
2023-03-04T02:42:03.714Z,99200.38
2023-03-04T02:44:37.080Z,99197.73
2023-03-04T02:47:07.216Z,99200.02
2023-03-04T02:49:36.550Z,99194.35
2023-03-04T02:52:11.172Z,99185.03
2023-03-04T02:54:40.147Z,99186.27
2023-03-04T02:57:10.725Z,99191.49
2023-03-04T02:59:41.204Z,99189.70
2023-03-04T03:02:11.730Z,99186.85
2023-03-04T03:04:41.103Z,99190.52
2023-03-04T03:07:11.888Z,99188.36
2023-03-04T03:09:40.562Z,99186.75
2023-03-04T03:12:09.015Z,99182.70
2023-03-04T03:14:37.433Z,99178.48
2023-03-04T03:17:07.041Z,99173.54
2023-03-04T03:19:35.616Z,99178.27
2023-03-04T03:22:06.158Z,99173.51
2023-03-04T03:24:34.835Z,99176.67
2023-03-04T03:27:03.250Z,99173.69
2023-03-04T03:29:32.239Z,99162.25
2023-03-04T03:32:00.525Z,99162.41
2023-03-04T03:34:28.994Z,99157.09
2023-03-04T03:36:58.391Z,99152.82
2023-03-04T03:39:26.628Z,99154.20
2023-03-04T03:41:55.069Z,99150.30
2023-03-04T03:44:23.290Z,99149.58
2023-03-04T03:46:52.609Z,99147.62
2023-03-04T03:49:21.737Z,99149.86
2023-03-04T03:51:49.867Z,99136.29
2023-03-04T03:54:17.797Z,99126.58
2023-03-04T03:56:46.647Z,99121.42
2023-03-04T03:59:15.134Z,99123.69
2023-03-04T04:01:43.612Z,99125.25
2023-03-04T04:04:12.295Z,99118.17
2023-03-04T04:06:40.429Z,99115.11
2023-03-04T04:09:08.572Z,99116.81
2023-03-04T04:11:37.320Z,99113.58
2023-03-04T04:14:05.465Z,99102.23
2023-03-04T04:16:33.819Z,99097.80
2023-03-04T04:19:02.266Z,99090.39
2023-03-04T04:21:33.992Z,99083.16
2023-03-04T04:24:03.360Z,99079.97
2023-03-04T04:26:31.610Z,99077.50
2023-03-04T04:29:00.350Z,99066.20
2023-03-04T04:31:28.681Z,99060.89
2023-03-04T04:33:56.828Z,99054.38
2023-03-04T04:36:25.058Z,99052.09
2023-03-04T04:38:57.717Z,99046.71
2023-03-04T04:41:28.742Z,99041.80
2023-03-04T04:43:56.776Z,99036.17
2023-03-04T04:46:26.533Z,99031.59
2023-03-04T04:48:54.827Z,99028.95
2023-03-04T04:51:23.020Z,99023.31
2023-03-04T04:53:51.267Z,99029.82
2023-03-04T04:56:21.247Z,99032.08
2023-03-04T04:58:49.487Z,99024.45
2023-03-04T05:01:17.662Z,99018.46
2023-03-04T05:03:45.921Z,99021.48
2023-03-04T05:06:14.717Z,99011.98
2023-03-04T05:08:42.980Z,99011.80
2023-03-04T05:11:11.470Z,99002.09
2023-03-04T05:13:40.366Z,98993.09
2023-03-04T05:16:09.709Z,98993.80
2023-03-04T05:18:38.247Z,98993.60
2023-03-04T05:21:09.389Z,98994.80
2023-03-04T05:23:40.661Z,98996.56
2023-03-04T05:26:09.701Z,98995.11
2023-03-04T05:28:38.126Z,98993.34
2023-03-04T05:31:07.146Z,98989.41
2023-03-04T05:33:36.629Z,98989.69
2023-03-04T05:36:06.227Z,98997.14
2023-03-04T05:38:35.288Z,98986.97
2023-03-04T05:41:05.583Z,98986.02
2023-03-04T05:43:37.333Z,98984.56
2023-03-04T05:46:05.655Z,98981.54
2023-03-04T05:48:33.802Z,98979.01
2023-03-04T05:51:02.236Z,98968.05
2023-03-04T05:53:30.480Z,98968.13
2023-03-04T05:56:01.787Z,98973.84
2023-03-04T05:58:30.389Z,98966.70
2023-03-04T06:01:00.760Z,98967.02
2023-03-04T06:03:29.294Z,98962.08
2023-03-04T06:05:57.543Z,98957.11
2023-03-04T06:08:25.884Z,98955.34
2023-03-04T06:10:56.783Z,98943.82
2023-03-04T06:13:25.448Z,98940.58
2023-03-04T06:15:57.528Z,98936.98
2023-03-04T06:18:26.125Z,98936.73
2023-03-04T06:20:59.915Z,98934.00
2023-03-04T06:23:28.529Z,98927.08
2023-03-04T06:25:57.882Z,98924.18
2023-03-04T06:28:26.066Z,98922.52
2023-03-04T06:30:55.317Z,98919.70
2023-03-04T06:33:25.813Z,98923.75
2023-03-04T06:35:55.779Z,98921.29
2023-03-04T06:38:24.516Z,98917.05
2023-03-04T06:40:57.037Z,98919.41
2023-03-04T06:43:25.776Z,98920.70
2023-03-04T06:45:54.389Z,98910.89
2023-03-04T06:48:23.152Z,98917.27
2023-03-04T06:50:51.536Z,98911.52
2023-03-04T06:53:19.757Z,98906.73
2023-03-04T06:55:49.926Z,98904.64
2023-03-04T06:58:18.810Z,98902.41
2023-03-04T07:00:47.110Z,98899.84
2023-03-04T07:03:16.119Z,98897.08
2023-03-04T07:05:46.422Z,98885.31
2023-03-04T07:08:21.629Z,98886.77
2023-03-04T07:10:53.477Z,98883.95
2023-03-04T07:13:21.610Z,98878.05
2023-03-04T07:15:53.991Z,98875.94
2023-03-04T07:18:22.857Z,98872.55
2023-03-04T07:20:53.292Z,98869.52
2023-03-04T07:23:21.769Z,98870.22
2023-03-04T07:25:50.567Z,98870.20
2023-03-04T07:28:19.089Z,98867.88
2023-03-04T07:30:47.329Z,98863.15
2023-03-04T07:33:20.087Z,98859.31
2023-03-04T07:35:48.565Z,98866.20
2023-03-04T07:38:17.074Z,98851.27
2023-03-04T07:40:45.546Z,98853.92
2023-03-04T07:43:14.272Z,98849.20
2023-03-04T07:45:42.667Z,98854.20
2023-03-04T07:48:12.637Z,98847.26
2023-03-04T07:50:40.826Z,98843.77
2023-03-04T07:53:09.707Z,98843.47
2023-03-04T07:55:37.988Z,98844.76
2023-03-04T07:58:06.227Z,98845.39
2023-03-04T08:00:35.060Z,98842.75
2023-03-04T08:03:04.457Z,98843.33
2023-03-04T08:05:33.761Z,98836.91
2023-03-04T08:08:03.159Z,98828.38
2023-03-04T08:10:33.240Z,98835.47
2023-03-04T08:13:02.278Z,98832.00
2023-03-04T08:15:33.054Z,98832.98
2023-03-04T08:18:05.804Z,98835.29
2023-03-04T08:20:34.558Z,98828.13
2023-03-04T08:23:04.508Z,98828.96
2023-03-04T08:25:33.048Z,98832.31
2023-03-04T08:28:01.428Z,98828.42
2023-03-04T08:30:31.863Z,98827.18
2023-03-04T08:33:02.187Z,98824.05
2023-03-04T08:35:30.541Z,98829.28
2023-03-04T08:38:00.750Z,98827.35
2023-03-04T08:40:31.552Z,98829.80
2023-03-04T08:43:05.903Z,98827.09
2023-03-04T08:45:34.811Z,98830.27
2023-03-04T08:48:02.959Z,98816.50
2023-03-04T08:50:32.535Z,98815.55
2023-03-04T08:53:00.969Z,98811.73
2023-03-04T08:55:29.343Z,98816.80
2023-03-04T08:57:58.108Z,98821.52
2023-03-04T09:00:27.023Z,98819.73
2023-03-04T09:03:15.797Z,98819.42
2023-03-04T09:05:48.251Z,98810.32
2023-03-04T09:08:16.743Z,98798.77
2023-03-04T09:10:45.758Z,98803.25
2023-03-04T09:13:16.822Z,98800.69
2023-03-04T09:15:47.470Z,98803.42
2023-03-04T09:18:15.852Z,98796.73
2023-03-04T09:20:46.200Z,98798.21
2023-03-04T09:23:14.780Z,98800.27
2023-03-04T09:25:43.371Z,98799.73
2023-03-04T09:28:11.754Z,98788.81
2023-03-04T09:30:40.328Z,98799.98
2023-03-04T09:33:09.363Z,98793.92
2023-03-04T09:35:38.293Z,98796.66
2023-03-04T09:38:06.797Z,98793.03
2023-03-04T09:40:44.689Z,98796.88
2023-03-04T09:43:27.662Z,98785.21
2023-03-04T09:45:57.658Z,98781.35
2023-03-04T09:48:29.196Z,98782.53
2023-03-04T09:55:05.001Z,98793.07
2023-03-04T09:57:53.378Z,98782.94
2023-03-04T10:00:25.266Z,98790.34
2023-03-04T10:03:13.941Z,98779.96
2023-03-04T10:05:43.977Z,98777.50
2023-03-04T10:08:47.064Z,98778.17
2023-03-04T10:11:24.929Z,98775.64
2023-03-04T10:13:55.809Z,98785.11
2023-03-04T10:16:27.019Z,98774.45
2023-03-04T10:18:57.738Z,98780.98
2023-03-04T10:21:34.130Z,98778.51
2023-03-04T10:24:11.337Z,98778.75
2023-03-04T10:26:39.716Z,98774.20
2023-03-04T10:29:11.805Z,98780.77
2023-03-04T10:31:43.970Z,98776.59
2023-03-04T10:34:13.418Z,98768.82
2023-03-04T10:36:51.491Z,98764.02
2023-03-04T10:39:29.057Z,98762.70
2023-03-04T10:41:57.657Z,98762.77
2023-03-04T10:44:26.330Z,98766.89
2023-03-04T10:54:42.882Z,98733.25
2023-03-04T10:57:17.804Z,98728.45
2023-03-04T10:59:52.808Z,98721.09
2023-03-04T11:02:31.749Z,98711.98
2023-03-04T11:05:14.332Z,98705.62
2023-03-04T11:07:56.370Z,98698.19
2023-03-04T11:10:28.555Z,98706.33
2023-03-04T11:13:27.348Z,98692.12
2023-03-04T11:16:02.601Z,98684.41
2023-03-04T11:18:55.392Z,98688.45
2023-03-04T11:21:25.208Z,98683.94
2023-03-04T11:24:27.221Z,98681.66
2023-03-04T11:27:23.826Z,98681.71
2023-03-04T11:30:13.105Z,98683.24
2023-03-04T11:32:43.644Z,98679.58
2023-03-04T11:35:36.932Z,98677.47
2023-03-04T11:38:23.776Z,98682.80
2023-03-04T11:40:54.805Z,98673.95
2023-03-04T11:43:37.163Z,98676.81
2023-03-04T11:46:37.984Z,98666.06
2023-03-04T11:49:34.402Z,98666.77
2023-03-04T11:52:13.227Z,98665.45
2023-03-04T11:55:03.655Z,98656.39
2023-03-04T11:58:15.144Z,98663.30
2023-03-04T12:00:59.365Z,98652.38
2023-03-04T12:03:26.959Z,98655.63
2023-03-04T12:06:04.573Z,98653.45
2023-03-04T12:08:40.988Z,98652.98
2023-03-04T12:11:39.681Z,98658.89
2023-03-04T12:14:23.801Z,98653.16
2023-03-04T12:17:29.998Z,98659.29
2023-03-04T12:20:18.985Z,98654.50
2023-03-04T12:22:50.896Z,98652.59
2023-03-04T12:25:42.061Z,98654.69
2023-03-04T12:28:17.076Z,98652.71
2023-03-04T12:31:03.713Z,98656.61
2023-03-04T12:34:08.699Z,98652.47
2023-03-04T12:36:57.592Z,98648.54
2023-03-04T12:39:37.507Z,98652.83
2023-03-04T12:42:15.886Z,98657.76
2023-03-04T12:45:06.694Z,98653.65
2023-03-04T12:48:14.561Z,98653.86
2023-03-04T12:51:08.259Z,98649.45
2023-03-04T12:53:50.476Z,98642.96
2023-03-04T12:56:23.116Z,98639.45
2023-03-04T12:58:49.943Z,98641.14
2023-03-04T13:01:37.637Z,98650.31
2023-03-04T13:04:23.550Z,98651.83
2023-03-04T13:07:21.747Z,98648.76
2023-03-04T13:09:52.766Z,98647.27
2023-03-04T13:12:22.321Z,98654.16
2023-03-04T13:15:08.243Z,98648.84
2023-03-04T13:17:48.990Z,98646.34
2023-03-04T13:20:29.450Z,98653.40
2023-03-04T13:23:08.642Z,98649.88
2023-03-04T13:25:44.653Z,98640.44
2023-03-04T13:28:15.618Z,98650.84
2023-03-04T13:31:03.335Z,98644.17
2023-03-04T13:33:36.401Z,98650.83
2023-03-04T13:36:08.333Z,98644.73
2023-03-04T13:38:37.332Z,98638.54
2023-03-04T13:41:24.454Z,98636.46
2023-03-04T13:43:52.878Z,98625.88
2023-03-04T13:46:19.844Z,98609.97
2023-03-04T13:48:50.203Z,98608.22
2023-03-04T13:51:45.545Z,98612.77
2023-03-04T13:54:12.597Z,98605.23
2023-03-04T13:56:47.220Z,98598.83
2023-03-04T13:59:41.518Z,98597.39
2023-03-04T14:02:14.762Z,98593.59
2023-03-04T14:04:42.736Z,98595.89
2023-03-04T14:07:33.717Z,98595.98
2023-03-04T14:10:12.239Z,98600.14
2023-03-04T14:12:44.484Z,98608.05
2023-03-04T14:15:25.577Z,98611.23
2023-03-04T14:17:54.233Z,98610.01
2023-03-04T14:20:30.734Z,98605.09
2023-03-04T14:22:58.840Z,98607.02
2023-03-04T14:25:26.805Z,98611.69
2023-03-04T14:28:11.621Z,98609.17
2023-03-04T14:30:43.680Z,98611.95
2023-03-04T14:33:15.784Z,98608.95
2023-03-04T14:35:51.591Z,98612.61
2023-03-04T14:38:24.637Z,98616.17
2023-03-04T14:41:05.177Z,98612.51
2023-03-04T14:43:35.860Z,98612.20
2023-03-04T14:46:02.901Z,98606.20
2023-03-04T14:56:16.796Z,98599.21
2023-03-04T14:58:53.865Z,98591.88
2023-03-04T15:01:23.559Z,98598.80
2023-03-04T15:03:55.429Z,98586.58
2023-03-04T15:06:25.334Z,98592.23
2023-03-04T15:09:00.872Z,98587.25
2023-03-04T15:11:44.851Z,98583.75
2023-03-04T15:15:00.631Z,98591.36
2023-03-04T15:17:39.904Z,98594.73
2023-03-04T15:20:08.035Z,98604.60
2023-03-04T15:22:56.248Z,98600.47
2023-03-04T15:25:24.852Z,98596.07
2023-03-04T15:27:56.902Z,98595.39
2023-03-04T15:30:27.738Z,98598.26
2023-03-04T15:32:56.863Z,98592.70
2023-03-04T15:35:25.949Z,98592.14
2023-03-04T15:37:59.269Z,98597.81
2023-03-04T15:40:31.887Z,98600.86
2023-03-04T15:43:02.036Z,98601.45
2023-03-04T15:45:32.832Z,98598.70
2023-03-04T15:48:01.368Z,98594.78
2023-03-04T15:50:30.236Z,98596.39
2023-03-04T15:53:02.151Z,98589.05
2023-03-04T15:55:32.663Z,98593.65
2023-03-04T15:58:00.944Z,98597.64
2023-03-04T16:00:31.052Z,98593.79
2023-03-04T16:03:00.201Z,98591.70
2023-03-04T16:05:28.737Z,98594.33
2023-03-04T16:07:59.370Z,98593.39
2023-03-04T16:10:30.720Z,98595.63
2023-03-04T16:12:58.923Z,98596.07
2023-03-04T16:15:29.813Z,98595.35
2023-03-04T16:17:59.936Z,98595.16
2023-03-04T16:20:29.202Z,98593.66
2023-03-04T16:23:01.259Z,98591.45
2023-03-04T16:25:31.253Z,98586.55
2023-03-04T16:28:02.895Z,98588.73
2023-03-04T16:30:31.673Z,98591.95
2023-03-04T16:33:00.666Z,98587.61
2023-03-04T16:35:29.799Z,98584.72
2023-03-04T16:37:58.721Z,98580.75
2023-03-04T16:40:29.103Z,98580.36
2023-03-04T16:42:57.477Z,98578.64
2023-03-04T16:45:32.599Z,98575.68
2023-03-04T16:48:00.699Z,98574.29
2023-03-04T16:50:30.203Z,98565.79
2023-03-04T16:52:58.430Z,98562.38
2023-03-04T16:55:28.191Z,98552.15
2023-03-04T16:57:57.830Z,98554.77
2023-03-04T17:00:27.944Z,98560.12
2023-03-04T17:02:57.909Z,98552.02
2023-03-04T17:05:27.891Z,98550.09
2023-03-04T17:07:56.600Z,98549.96
2023-03-04T17:10:27.385Z,98550.04
2023-03-04T17:12:55.754Z,98542.43
2023-03-04T17:15:25.461Z,98537.55
2023-03-04T17:17:53.560Z,98537.03
2023-03-04T17:20:23.456Z,98541.27
2023-03-04T17:22:53.659Z,98542.84
2023-03-04T17:25:21.872Z,98538.73
2023-03-04T17:27:51.254Z,98536.21
2023-03-04T17:30:20.745Z,98532.30
2023-03-04T17:33:29.657Z,98532.25
2023-03-04T17:35:57.674Z,98526.45
2023-03-04T17:38:26.866Z,98530.23
2023-03-04T17:40:55.857Z,98528.17
2023-03-04T17:43:22.614Z,98527.52
2023-03-04T17:45:50.194Z,98531.33
2023-03-04T17:48:17.218Z,98526.13
2023-03-04T17:50:50.639Z,98522.36
2023-03-04T17:53:20.357Z,98517.52
2023-03-04T17:55:51.577Z,98508.54
2023-03-04T17:58:18.561Z,98509.08
2023-03-04T18:00:45.657Z,98510.52
2023-03-04T18:03:13.056Z,98504.73
2023-03-04T18:05:40.380Z,98501.13
2023-03-04T18:08:07.432Z,98502.10
2023-03-04T18:10:35.702Z,98498.73
2023-03-04T18:13:02.919Z,98497.83
2023-03-04T18:15:30.931Z,98500.01
2023-03-04T18:17:58.292Z,98500.65
2023-03-04T18:20:25.569Z,98507.23
2023-03-04T18:22:56.171Z,98508.66
2023-03-04T18:25:23.058Z,98508.42
2023-03-04T18:27:54.776Z,98499.89
2023-03-04T18:30:26.942Z,98491.30
2023-03-04T18:32:55.449Z,98487.67
2023-03-04T18:35:22.602Z,98485.84
2023-03-04T18:37:49.963Z,98485.88
2023-03-04T18:40:17.389Z,98487.80
2023-03-04T18:42:45.018Z,98486.34
2023-03-04T18:45:20.833Z,98482.54
2023-03-04T18:47:49.380Z,98483.38
2023-03-04T18:50:16.649Z,98479.00
2023-03-04T18:52:44.319Z,98483.51
2023-03-04T18:55:12.466Z,98479.70
2023-03-04T18:57:40.888Z,98481.25
2023-03-04T19:00:09.940Z,98476.63
2023-03-04T19:02:44.903Z,98477.61
2023-03-04T19:05:18.676Z,98474.42
2023-03-04T19:07:45.488Z,98477.77
2023-03-04T19:10:12.230Z,98485.16
2023-03-04T19:12:39.162Z,98481.92
2023-03-04T19:15:07.886Z,98461.02
2023-03-04T19:17:36.719Z,98455.22
2023-03-04T19:20:08.435Z,98451.42
2023-03-04T19:22:35.649Z,98443.27
2023-03-04T19:25:02.860Z,98446.14
2023-03-04T19:27:30.598Z,98444.39
2023-03-04T19:29:59.523Z,98443.19
2023-03-04T19:32:27.324Z,98428.92
2023-03-04T19:34:54.663Z,98424.37
2023-03-04T19:37:21.512Z,98432.55
2023-03-04T19:39:48.779Z,98435.10
2023-03-04T19:42:51.911Z,98438.27
2023-03-04T19:45:19.052Z,98435.83
2023-03-04T19:47:45.769Z,98428.26
2023-03-04T19:50:15.942Z,98424.30
2023-03-04T19:52:43.124Z,98427.83
2023-03-04T19:55:12.245Z,98429.03
2023-03-04T19:57:41.231Z,98428.10
2023-03-04T20:00:10.403Z,98423.19
2023-03-04T20:02:39.706Z,98429.97
2023-03-04T20:05:07.203Z,98420.95
2023-03-04T20:07:39.888Z,98422.23
2023-03-04T20:10:07.896Z,98419.23
2023-03-04T20:12:35.872Z,98418.98
2023-03-04T20:15:06.227Z,98414.80
2023-03-04T20:17:33.304Z,98413.70
2023-03-04T20:20:04.927Z,98405.77
2023-03-04T20:22:32.219Z,98408.91
2023-03-04T20:24:59.371Z,98407.61
2023-03-04T20:27:27.625Z,98407.11
2023-03-04T20:29:56.047Z,98409.71
2023-03-04T20:32:24.321Z,98421.70
2023-03-04T20:34:56.268Z,98460.95
2023-03-04T20:37:24.155Z,98513.06
2023-03-04T20:39:51.567Z,98517.39
2023-03-04T20:42:18.873Z,98521.23
2023-03-04T20:44:46.743Z,98523.84
2023-03-04T20:47:13.828Z,98525.32
2023-03-04T20:49:41.282Z,98534.66
2023-03-04T20:52:09.140Z,98538.62
2023-03-04T20:54:37.140Z,98542.31
2023-03-04T20:57:10.036Z,98542.68
2023-03-04T20:59:38.643Z,98547.60
2023-03-04T21:02:13.839Z,98550.73
2023-03-04T21:04:41.784Z,98558.47
2023-03-04T21:07:09.112Z,98554.69
2023-03-04T21:09:39.552Z,98555.68
2023-03-04T21:12:07.544Z,98568.95
2023-03-04T21:14:36.178Z,98577.86
2023-03-04T21:17:05.830Z,98572.17
2023-03-04T21:19:35.758Z,98573.13
2023-03-04T21:22:07.744Z,98577.48
2023-03-04T21:24:35.505Z,98578.71
2023-03-04T21:27:20.078Z,98583.14
2023-03-04T21:29:49.675Z,98587.44
2023-03-04T21:32:24.957Z,98587.95
2023-03-04T21:34:54.439Z,98594.09
2023-03-04T21:37:24.112Z,98601.13
2023-03-04T21:39:55.216Z,98607.60
2023-03-04T21:42:24.268Z,98609.06
2023-03-04T21:44:57.596Z,98604.35
2023-03-04T21:47:25.893Z,98596.74
2023-03-04T21:49:54.138Z,98597.77
2023-03-04T21:52:24.506Z,98593.08
2023-03-04T21:54:52.913Z,98589.80
2023-03-04T21:57:27.670Z,98585.70
2023-03-04T21:59:56.903Z,98585.25
2023-03-04T22:02:25.182Z,98586.90
2023-03-04T22:04:54.068Z,98579.23
2023-03-04T22:07:22.143Z,98584.36
2023-03-04T22:09:54.494Z,98584.82
2023-03-04T22:13:24.869Z,98598.63
2023-03-04T22:15:52.450Z,98601.30
2023-03-04T22:18:21.421Z,98601.70
2023-03-04T22:20:48.469Z,98591.17
2023-03-04T22:23:16.637Z,98589.79
2023-03-04T22:25:43.838Z,98590.54
2023-03-04T22:28:14.221Z,98594.09
2023-03-04T22:30:42.414Z,98589.89
2023-03-04T22:33:09.243Z,98596.11
2023-03-04T22:35:39.853Z,98616.95
2023-03-04T22:38:07.020Z,98626.00
2023-03-04T22:40:34.739Z,98628.02
2023-03-04T22:43:02.112Z,98637.34
2023-03-04T22:45:29.462Z,98641.39
2023-03-04T22:47:57.073Z,98642.00
2023-03-04T22:50:25.787Z,98652.80
2023-03-04T22:52:53.649Z,98663.11
2023-03-04T22:55:21.241Z,98662.98
2023-03-04T22:57:49.092Z,98660.17
2023-03-04T23:00:24.141Z,98666.19
2023-03-04T23:02:56.056Z,98669.66
2023-03-04T23:05:23.502Z,98669.54
2023-03-04T23:07:50.858Z,98671.13
2023-03-04T23:10:23.130Z,98673.25
2023-03-04T23:12:51.006Z,98682.61
2023-03-04T23:15:19.070Z,98686.14
2023-03-04T23:17:46.648Z,98684.73
2023-03-04T23:20:16.885Z,98683.89
2023-03-04T23:22:44.716Z,98696.46
2023-03-04T23:25:11.919Z,98695.34
2023-03-04T23:27:39.021Z,98697.84
2023-03-04T23:30:07.833Z,98698.44
2023-03-04T23:32:35.225Z,98708.67
2023-03-04T23:35:03.922Z,98701.91
2023-03-04T23:37:30.908Z,98704.59
2023-03-04T23:39:59.191Z,98706.02
2023-03-04T23:42:26.452Z,98702.52
2023-03-04T23:44:53.309Z,98704.48
2023-03-04T23:47:20.009Z,98705.55
2023-03-04T23:49:47.386Z,98708.55
2023-03-04T23:52:14.170Z,98709.65
2023-03-04T23:54:41.678Z,98708.25
2023-03-04T23:57:08.734Z,98710.69
2023-03-04T23:59:35.570Z,98711.94
